createdAt,value
2018-10-05T00:12:17.902Z,2.1
2018-10-05T00:27:23.701Z,2
2018-10-05T00:57:13.966Z,1.9
2018-10-05T01:12:12.965Z,2
2018-10-05T01:28:03.276Z,1.9
2018-10-05T01:57:45.653Z,2
2018-10-05T02:12:49.322Z,1.9
2018-10-05T02:27:03.956Z,1.8
2018-10-05T02:42:13.962Z,1.8
2018-10-05T02:57:05.413Z,1.6
2018-10-05T03:12:18.925Z,1.8
2018-10-05T03:14:27.067Z,1.8
2018-10-05T03:57:06.996Z,1.8
2018-10-05T04:12:06.772Z,1.7
2018-10-05T04:27:19.183Z,1.6
2018-10-05T04:42:34.584Z,1.9
2018-10-05T04:57:30.619Z,1.8
2018-10-05T05:13:12.157Z,1.7
2018-10-05T05:27:28.694Z,2
2018-10-05T05:34:49.398Z,2
2018-10-05T05:42:51.400Z,2
2018-10-05T05:57:57.958Z,1.8
2018-10-05T06:12:10.503Z,1.9
2018-10-05T06:27:31.021Z,2
2018-10-05T06:42:34.035Z,1.7
2018-10-05T06:57:31.108Z,1.9
2018-10-05T07:12:32.776Z,1.7
2018-10-05T07:28:02.164Z,1.6
2018-10-05T07:42:10.489Z,1.8
2018-10-05T07:57:33.110Z,1.8
2018-10-05T08:12:39.231Z,1.8
2018-10-05T08:27:59.668Z,1.7
2018-10-05T08:43:08.642Z,1.6
2018-10-05T08:57:22.163Z,1.7
2018-10-05T09:42:56.147Z,1.5
2018-10-05T09:58:04.468Z,1.6
2018-10-05T10:12:15.043Z,1.6
2018-10-05T10:57:12.037Z,1.6
2018-10-05T11:13:08.525Z,1.6
2018-10-05T11:27:18.818Z,1.4
2018-10-05T11:42:21.958Z,1.6
2018-10-05T11:57:16.685Z,1.4
2018-10-05T12:42:28.868Z,1.3
2018-10-05T12:57:49.474Z,1.4
2018-10-05T13:27:38.790Z,1.3
2018-10-05T14:43:11.184Z,1.1
2018-10-05T14:57:17.731Z,1.3
2018-10-05T15:12:28.566Z,1.8
2018-10-05T15:27:47.119Z,1.1
2018-10-05T15:43:11.270Z,1.3
2018-10-05T15:58:14.569Z,1
2018-10-05T16:12:40.748Z,1.1
2018-10-05T16:27:25.360Z,1
2018-10-05T16:42:46.799Z,1.3
2018-10-05T16:58:02.883Z,1.1
2018-10-05T17:13:08.038Z,1.1
2018-10-05T17:28:04.849Z,1.1
2018-10-05T17:43:05.622Z,1.2
2018-10-05T17:58:07.431Z,1.3
2018-10-05T18:13:13.288Z,1.4
2018-10-05T18:28:17.527Z,1.2
2018-10-05T18:57:33.415Z,1.3
2018-10-05T19:12:59.031Z,1.4
2018-10-05T19:27:36.239Z,1.3
2018-10-05T19:58:14.949Z,1.5
2018-10-05T20:13:21.664Z,1.4
2018-10-05T20:28:17.613Z,1.2
2018-10-05T20:43:13.865Z,1.6
2018-10-05T20:57:30.909Z,1.4
2018-10-05T21:13:25.360Z,1.3
2018-10-05T21:27:34.983Z,1.4
2018-10-05T21:42:47.751Z,1.5
2018-10-05T21:58:04.509Z,1.4
2018-10-05T22:13:14.375Z,1.6
2018-10-05T22:27:41.191Z,1.5
2018-10-05T22:42:50.184Z,1.4
2018-10-05T22:58:05.031Z,1.6
2018-10-05T23:13:01.317Z,1.7
2018-10-05T23:27:37.759Z,1.4
2018-10-05T23:42:32.392Z,1.5
